Time;durP1;ratioP1;P1;durP2;ratioP2;P2;SDS_P1;SDS_P2;PMS_P1;PMS_P2;Temp;Humidity;BMP_temperature;BMP_pressure;BME280_temperature;BME280_humidity;BME280_pressure;Samples;Min_cycle;Max_cycle;Signal;HPM_P1;HPM_P2
2024/01/24 00:00:05;;;;;;;1.47;0.40;;;;;;;;;;496206;28;931;-77
2024/01/24 00:00:20;;;;;;;1.17;0.40;;;;;;;;;;496223;28;1176;-77
2024/01/24 00:00:36;;;;;;;1.37;0.40;;;;;;;;;;498100;28;955;-77
2024/01/24 00:00:51;;;;;;;1.93;0.50;;;;;;;;;;497555;28;1078;-77
2024/01/24 00:01:07;;;;;;;2.05;0.50;;;;;;;;;;497804;28;990;-77
2024/01/24 00:01:23;;;;;;;1.42;0.40;;;;;;;;;;498440;28;909;-77
2024/01/24 00:01:38;;;;;;;1.50;0.40;;;;;;;;;;497454;28;1036;-77
2024/01/24 00:01:54;;;;;;;1.45;0.38;;;;;;;;;;497621;28;1270;-77
2024/01/24 00:02:09;;;;;;;1.30;0.40;;;;;;;;;;497396;28;1101;-77
2024/01/24 00:02:24;;;;;;;1.70;0.50;;;;;;;;;;499101;28;1925;-77
2024/01/24 00:02:40;;;;;;;1.90;0.50;;;;;;;;;;499680;28;957;-77
2024/01/24 00:02:56;;;;;;;1.50;0.40;;;;;;;;;;499293;28;900;-77
2024/01/24 00:03:11;;;;;;;1.17;0.37;;;;;;;;;;498559;28;1381;-77
2024/01/24 00:03:27;;;;;;;1.10;0.32;;;;;;;;;;498270;28;1135;-77
2024/01/24 00:03:42;;;;;;;1.33;0.40;;;;;;;;;;497708;28;1430;-77
2024/01/24 00:03:59;;;;;;;1.87;0.50;;;;;;;;;;498063;28;953;-77
2024/01/24 00:04:15;;;;;;;1.75;0.40;;;;;;;;;;497816;28;1229;-77
2024/01/24 00:04:30;;;;;;;1.57;0.40;;;;;;;;;;498669;28;1343;-77
2024/01/24 00:04:46;;;;;;;1.35;0.40;;;;;;;;;;498054;28;972;-76
2024/01/24 00:05:01;;;;;;;1.23;0.30;;;;;;;;;;498233;28;957;-77
2024/01/24 00:05:17;;;;;;;1.40;0.30;;;;;;;;;;496372;28;1148;-77
2024/01/24 00:05:32;;;;;;;1.30;0.37;;;;;;;;;;496825;28;909;-77
2024/01/24 00:05:48;;;;;;;1.38;0.30;;;;;;;;;;496387;28;1027;-77
2024/01/24 00:06:03;;;;;;;1.60;0.40;;;;;;;;;;496374;28;1787;-77
2024/01/24 00:06:19;;;;;;;1.88;0.30;;;;;;;;;;495729;28;1046;-77
2024/01/24 00:06:37;;;;;;;2.08;0.40;;;;;;;;;;498076;28;1328;-77
2024/01/24 00:06:52;;;;;;;1.92;0.40;;;;;;;;;;498932;28;957;-77
2024/01/24 00:07:08;;;;;;;1.13;0.37;;;;;;;;;;495965;28;1328;-77
2024/01/24 00:07:23;;;;;;;0.90;0.35;;;;;;;;;;496983;28;999;-77
2024/01/24 00:07:39;;;;;;;1.03;0.33;;;;;;;;;;496085;28;1279;-77
2024/01/24 00:07:54;;;;;;;1.60;0.40;;;;;;;;;;493773;28;1122;-77
2024/01/24 00:08:10;;;;;;;1.30;0.33;;;;;;;;;;494484;28;1239;-77
2024/01/24 00:08:25;;;;;;;0.80;0.22;;;;;;;;;;496906;28;1223;-77
2024/01/24 00:08:41;;;;;;;1.07;0.30;;;;;;;;;;495395;28;1312;-77
2024/01/24 00:08:56;;;;;;;1.10;0.30;;;;;;;;;;495666;28;1425;-77
2024/01/24 00:09:12;;;;;;;0.93;0.40;;;;;;;;;;495787;28;944;-77
2024/01/24 00:09:30;;;;;;;1.00;0.40;;;;;;;;;;495830;28;960;-76
2024/01/24 00:09:46;;;;;;;1.10;0.30;;;;;;;;;;495278;28;901;-77
2024/01/24 00:10:02;;;;;;;0.90;0.20;;;;;;;;;;497373;28;1028;-77
2024/01/24 00:10:18;;;;;;;0.80;0.38;;;;;;;;;;497233;28;949;-78
2024/01/24 00:10:34;;;;;;;1.20;0.50;;;;;;;;;;497539;28;860;-77
2024/01/24 00:10:49;;;;;;;1.50;0.40;;;;;;;;;;498400;28;1480;-77
2024/01/24 00:11:04;;;;;;;1.25;0.40;;;;;;;;;;497407;28;1401;-77
2024/01/24 00:11:20;;;;;;;1.03;0.40;;;;;;;;;;496287;28;1023;-77
2024/01/24 00:11:36;;;;;;;1.00;0.40;;;;;;;;;;496702;28;1170;-77
2024/01/24 00:11:51;;;;;;;1.00;0.40;;;;;;;;;;494874;28;1456;-77
2024/01/24 00:12:07;;;;;;;0.97;0.30;;;;;;;;;;495051;28;1053;-77
2024/01/24 00:12:23;;;;;;;1.23;0.40;;;;;;;;;;493406;28;1175;-77
2024/01/24 00:12:38;;;;;;;1.50;0.40;;;;;;;;;;493715;28;1061;-77
2024/01/24 00:12:55;;;;;;;1.50;0.40;;;;;;;;;;494755;28;1145;-77
2024/01/24 00:13:10;;;;;;;1.10;0.40;;;;;;;;;;493942;28;1212;-77
2024/01/24 00:13:26;;;;;;;0.90;0.40;;;;;;;;;;494103;28;986;-77
2024/01/24 00:13:42;;;;;;;1.10;0.40;;;;;;;;;;493852;28;1224;-77
2024/01/24 00:13:57;;;;;;;1.20;0.30;;;;;;;;;;492373;28;1502;-77
2024/01/24 00:14:13;;;;;;;1.20;0.30;;;;;;;;;;493406;28;1141;-77
2024/01/24 00:14:28;;;;;;;1.10;0.30;;;;;;;;;;495027;28;890;-77
2024/01/24 00:14:43;;;;;;;0.70;0.30;;;;;;;;;;495159;28;1089;-77
2024/01/24 00:14:59;;;;;;;0.57;0.28;;;;;;;;;;495740;28;1252;-77
2024/01/24 00:15:15;;;;;;;0.60;0.30;;;;;;;;;;493596;28;1110;-77
2024/01/24 00:15:30;;;;;;;0.60;0.20;;;;;;;;;;494662;28;1200;-77
2024/01/24 00:15:46;;;;;;;0.90;0.30;;;;;;;;;;494920;28;986;-77
2024/01/24 00:16:01;;;;;;;0.90;0.30;;;;;;;;;;495068;28;886;-77
2024/01/24 00:16:17;;;;;;;0.80;0.30;;;;;;;;;;496507;28;1369;-77
2024/01/24 00:16:33;;;;;;;1.02;0.30;;;;;;;;;;495883;28;945;-77
2024/01/24 00:16:48;;;;;;;0.90;0.30;;;;;;;;;;496806;28;1035;-77
2024/01/24 00:17:05;;;;;;;0.70;0.30;;;;;;;;;;496812;28;928;-77
2024/01/24 00:17:20;;;;;;;1.73;0.40;;;;;;;;;;496124;28;1219;-77
2024/01/24 00:17:36;;;;;;;1.70;0.40;;;;;;;;;;497593;28;1057;-77
2024/01/24 00:17:52;;;;;;;0.90;0.30;;;;;;;;;;497102;28;949;-77
2024/01/24 00:18:07;;;;;;;0.77;0.30;;;;;;;;;;497547;28;899;-77
2024/01/24 00:18:23;;;;;;;0.93;0.30;;;;;;;;;;498711;28;937;-77
2024/01/24 00:18:38;;;;;;;0.90;0.30;;;;;;;;;;499244;28;903;-77
2024/01/24 00:18:54;;;;;;;1.10;0.30;;;;;;;;;;497607;28;1204;-77
2024/01/24 00:19:09;;;;;;;0.98;0.25;;;;;;;;;;498061;28;1318;-77
2024/01/24 00:19:25;;;;;;;0.80;0.27;;;;;;;;;;498869;28;936;-78
2024/01/24 00:19:40;;;;;;;0.98;0.30;;;;;;;;;;498842;28;1192;-78
2024/01/24 00:19:56;;;;;;;1.13;0.30;;;;;;;;;;498902;28;1131;-78
2024/01/24 00:20:12;;;;;;;1.38;0.30;;;;;;;;;;498464;28;1135;-77
2024/01/24 00:20:29;;;;;;;1.55;0.30;;;;;;;;;;499369;28;1159;-77
2024/01/24 00:20:44;;;;;;;1.17;0.20;;;;;;;;;;498291;28;926;-77
2024/01/24 00:21:01;;;;;;;0.70;0.20;;;;;;;;;;496286;28;1150;-77
2024/01/24 00:21:16;;;;;;;0.63;0.22;;;;;;;;;;497192;28;1108;-77
2024/01/24 00:21:31;;;;;;;0.93;0.30;;;;;;;;;;497414;28;932;-77
2024/01/24 00:21:47;;;;;;;0.70;0.30;;;;;;;;;;496043;28;1156;-78
2024/01/24 00:22:03;;;;;;;1.00;0.33;;;;;;;;;;497194;28;976;-77
2024/01/24 00:22:18;;;;;;;1.63;0.40;;;;;;;;;;498528;28;1943;-77
2024/01/24 00:22:34;;;;;;;1.55;0.35;;;;;;;;;;496993;28;1014;-77
2024/01/24 00:22:49;;;;;;;1.37;0.30;;;;;;;;;;495673;28;1250;-77
2024/01/24 00:23:05;;;;;;;1.10;0.40;;;;;;;;;;498430;28;1206;-77
2024/01/24 00:23:22;;;;;;;1.20;0.30;;;;;;;;;;497481;28;986;-77
2024/01/24 00:23:38;;;;;;;1.30;0.20;;;;;;;;;;498207;28;1155;-78
2024/01/24 00:23:53;;;;;;;1.63;0.33;;;;;;;;;;498079;28;934;-77
2024/01/24 00:24:09;;;;;;;1.30;0.40;;;;;;;;;;499323;28;963;-77
2024/01/24 00:24:24;;;;;;;0.75;0.30;;;;;;;;;;495692;28;1446;-77
2024/01/24 00:24:40;;;;;;;0.93;0.23;;;;;;;;;;497921;28;941;-77
2024/01/24 00:24:56;;;;;;;1.52;0.30;;;;;;;;;;497682;28;1131;-77
2024/01/24 00:25:11;;;;;;;1.35;0.40;;;;;;;;;;497777;28;1174;-77
2024/01/24 00:25:27;;;;;;;1.13;0.30;;;;;;;;;;496467;28;1178;-77
2024/01/24 00:25:42;;;;;;;1.00;0.30;;;;;;;;;;498185;28;1077;-77
2024/01/24 00:25:58;;;;;;;0.73;0.30;;;;;;;;;;497023;28;949;-77
2024/01/24 00:26:13;;;;;;;0.73;0.30;;;;;;;;;;497535;28;969;-77
2024/01/24 00:26:29;;;;;;;0.90;0.30;;;;;;;;;;499120;28;1123;-77
2024/01/24 00:26:44;;;;;;;0.80;0.30;;;;;;;;;;500444;28;1126;-77
2024/01/24 00:26:59;;;;;;;0.60;0.20;;;;;;;;;;497581;28;1044;-77
2024/01/24 00:27:15;;;;;;;0.98;0.20;;;;;;;;;;493436;28;1149;-77
2024/01/24 00:27:30;;;;;;;0.83;0.27;;;;;;;;;;495552;28;1146;-77
2024/01/24 00:27:47;;;;;;;0.55;0.20;;;;;;;;;;494307;28;1223;-77
2024/01/24 00:28:02;;;;;;;1.40;0.35;;;;;;;;;;493700;28;1438;-76
2024/01/24 00:28:18;;;;;;;1.25;0.32;;;;;;;;;;492449;28;1292;-77
2024/01/24 00:28:34;;;;;;;0.70;0.25;;;;;;;;;;494964;28;1251;-77
2024/01/24 00:28:49;;;;;;;0.50;0.30;;;;;;;;;;495339;28;1164;-77
2024/01/24 00:29:05;;;;;;;1.23;0.30;;;;;;;;;;492277;28;1191;-77
2024/01/24 00:29:20;;;;;;;1.43;0.30;;;;;;;;;;494340;28;1133;-77
2024/01/24 00:29:36;;;;;;;0.93;0.22;;;;;;;;;;493270;28;1193;-77
2024/01/24 00:29:51;;;;;;;1.23;0.20;;;;;;;;;;492869;28;1291;-77
2024/01/24 00:30:07;;;;;;;1.17;0.30;;;;;;;;;;492967;28;1113;-77
2024/01/24 00:30:23;;;;;;;1.60;0.40;;;;;;;;;;491908;28;1257;-77
2024/01/24 00:30:38;;;;;;;1.40;0.30;;;;;;;;;;493096;28;1208;-77
2024/01/24 00:30:54;;;;;;;1.23;0.30;;;;;;;;;;492497;28;1152;-77
2024/01/24 00:31:09;;;;;;;1.10;0.30;;;;;;;;;;494262;28;1401;-77
2024/01/24 00:31:25;;;;;;;0.80;0.30;;;;;;;;;;494844;28;1164;-77
2024/01/24 00:31:41;;;;;;;1.00;0.30;;;;;;;;;;492287;28;1126;-77
2024/01/24 00:31:56;;;;;;;0.80;0.30;;;;;;;;;;492915;28;947;-77
2024/01/24 00:32:12;;;;;;;0.68;0.20;;;;;;;;;;491845;28;1219;-77
2024/01/24 00:32:27;;;;;;;0.90;0.27;;;;;;;;;;491084;28;1331;-77
2024/01/24 00:32:43;;;;;;;1.67;0.20;;;;;;;;;;491274;28;890;-77
2024/01/24 00:33:00;;;;;;;2.20;0.30;;;;;;;;;;492476;28;952;-77
2024/01/24 00:33:16;;;;;;;1.05;0.25;;;;;;;;;;494629;28;937;-77
2024/01/24 00:33:32;;;;;;;0.68;0.30;;;;;;;;;;494805;28;1659;-77
2024/01/24 00:33:48;;;;;;;1.00;0.40;;;;;;;;;;495486;28;948;-77
2024/01/24 00:34:04;;;;;;;1.00;0.30;;;;;;;;;;494843;28;1169;-78
2024/01/24 00:34:19;;;;;;;0.90;0.25;;;;;;;;;;495836;28;1259;-78
2024/01/24 00:34:35;;;;;;;0.60;0.30;;;;;;;;;;495762;28;1233;-77
2024/01/24 00:34:50;;;;;;;0.73;0.30;;;;;;;;;;492874;28;1354;-77
2024/01/24 00:35:06;;;;;;;0.50;0.20;;;;;;;;;;495099;28;1346;-77
2024/01/24 00:35:21;;;;;;;0.30;0.10;;;;;;;;;;494262;28;1455;-77
2024/01/24 00:35:37;;;;;;;0.77;0.20;;;;;;;;;;493300;28;1236;-77
2024/01/24 00:35:52;;;;;;;1.20;0.30;;;;;;;;;;493957;28;902;-77
2024/01/24 00:36:08;;;;;;;1.60;0.30;;;;;;;;;;494614;28;989;-76
2024/01/24 00:36:23;;;;;;;1.50;0.22;;;;;;;;;;494831;28;1041;-77
2024/01/24 00:36:39;;;;;;;0.88;0.28;;;;;;;;;;495470;28;1104;-77
2024/01/24 00:36:54;;;;;;;1.13;0.37;;;;;;;;;;494827;28;1198;-77
2024/01/24 00:37:10;;;;;;;1.10;0.30;;;;;;;;;;498638;28;1065;-77
2024/01/24 00:37:25;;;;;;;1.20;0.20;;;;;;;;;;497351;28;1080;-77
2024/01/24 00:37:41;;;;;;;1.23;0.20;;;;;;;;;;497740;28;885;-77
2024/01/24 00:37:56;;;;;;;0.80;0.20;;;;;;;;;;497922;28;1187;-77
2024/01/24 00:38:11;;;;;;;0.50;0.20;;;;;;;;;;495940;28;1107;-77
2024/01/24 00:38:27;;;;;;;0.68;0.25;;;;;;;;;;495731;28;990;-77
2024/01/24 00:38:42;;;;;;;0.77;0.23;;;;;;;;;;497284;28;1211;-77
2024/01/24 00:38:58;;;;;;;0.57;0.20;;;;;;;;;;495248;28;1191;-78
2024/01/24 00:39:13;;;;;;;1.07;0.20;;;;;;;;;;495244;28;1095;-77
2024/01/24 00:39:29;;;;;;;1.17;0.20;;;;;;;;;;494850;28;1316;-77
2024/01/24 00:39:46;;;;;;;0.73;0.20;;;;;;;;;;493880;28;1212;-77
2024/01/24 00:40:03;;;;;;;1.20;0.22;;;;;;;;;;493553;28;1423;-77
2024/01/24 00:40:18;;;;;;;1.30;0.30;;;;;;;;;;496175;28;1478;-76
2024/01/24 00:40:34;;;;;;;1.02;0.30;;;;;;;;;;495736;28;1225;-77
2024/01/24 00:40:49;;;;;;;0.53;0.20;;;;;;;;;;494994;28;1250;-77
2024/01/24 00:41:05;;;;;;;1.15;0.20;;;;;;;;;;494920;28;1066;-77
2024/01/24 00:41:20;;;;;;;1.20;0.30;;;;;;;;;;493962;28;1657;-77
2024/01/24 00:41:36;;;;;;;0.85;0.30;;;;;;;;;;495003;28;929;-78
2024/01/24 00:41:52;;;;;;;0.87;0.30;;;;;;;;;;494442;28;1122;-77
2024/01/24 00:42:08;;;;;;;0.65;0.20;;;;;;;;;;493799;28;1387;-77
2024/01/24 00:42:23;;;;;;;0.90;0.20;;;;;;;;;;495971;28;1981;-72
2024/01/24 00:42:42;;;;;;;0.80;0.20;;;;;;;;;;492541;28;1486;-78
2024/01/24 00:42:58;;;;;;;0.82;0.10;;;;;;;;;;493294;28;1028;-77
2024/01/24 00:43:13;;;;;;;1.10;0.20;;;;;;;;;;491156;28;1367;-78
2024/01/24 00:43:29;;;;;;;0.82;0.30;;;;;;;;;;493343;28;925;-77
2024/01/24 00:43:44;;;;;;;0.68;0.20;;;;;;;;;;493399;28;1217;-77
2024/01/24 00:44:00;;;;;;;0.60;0.20;;;;;;;;;;490576;28;1061;-78
2024/01/24 00:44:15;;;;;;;0.87;0.27;;;;;;;;;;490522;28;1196;-77
2024/01/24 00:44:31;;;;;;;0.77;0.30;;;;;;;;;;494743;28;918;-77
2024/01/24 00:44:47;;;;;;;0.80;0.30;;;;;;;;;;494434;28;994;-78
2024/01/24 00:45:03;;;;;;;1.00;0.20;;;;;;;;;;497137;28;1290;-77
2024/01/24 00:45:19;;;;;;;0.90;0.30;;;;;;;;;;498321;28;1195;-77
2024/01/24 00:45:34;;;;;;;1.27;0.32;;;;;;;;;;497922;28;1001;-77
2024/01/24 00:45:50;;;;;;;1.20;0.30;;;;;;;;;;497167;28;1335;-77
2024/01/24 00:46:05;;;;;;;0.40;0.20;;;;;;;;;;497042;28;1200;-78
2024/01/24 00:46:21;;;;;;;0.60;0.20;;;;;;;;;;496377;28;941;-78
2024/01/24 00:46:36;;;;;;;0.70;0.20;;;;;;;;;;496950;28;1175;-77
2024/01/24 00:46:52;;;;;;;0.80;0.20;;;;;;;;;;497230;28;897;-78
2024/01/24 00:47:07;;;;;;;0.70;0.20;;;;;;;;;;499435;28;1253;-77
2024/01/24 00:47:22;;;;;;;0.52;0.20;;;;;;;;;;494312;28;1061;-77
2024/01/24 00:47:39;;;;;;;0.80;0.30;;;;;;;;;;495225;28;981;-77
2024/01/24 00:47:55;;;;;;;1.17;0.25;;;;;;;;;;497667;28;1565;-77
2024/01/24 00:48:10;;;;;;;1.58;0.20;;;;;;;;;;498229;28;923;-78
2024/01/24 00:48:26;;;;;;;1.13;0.17;;;;;;;;;;497555;28;927;-78
2024/01/24 00:48:41;;;;;;;2.10;0.10;;;;;;;;;;498840;28;905;-77
2024/01/24 00:48:57;;;;;;;2.17;0.20;;;;;;;;;;497846;28;1191;-77
2024/01/24 00:49:12;;;;;;;0.90;0.25;;;;;;;;;;498330;28;1183;-77
2024/01/24 00:49:30;;;;;;;0.60;0.20;;;;;;;;;;498986;28;1061;-77
2024/01/24 00:49:45;;;;;;;0.57;0.20;;;;;;;;;;499540;28;1082;-77
2024/01/24 00:50:01;;;;;;;0.70;0.20;;;;;;;;;;496682;28;1117;-77
2024/01/24 00:50:16;;;;;;;0.47;0.17;;;;;;;;;;496568;28;882;-78
2024/01/24 00:50:34;;;;;;;0.97;0.20;;;;;;;;;;494705;28;1153;-77
2024/01/24 00:50:50;;;;;;;1.23;0.20;;;;;;;;;;495131;28;971;-77
2024/01/24 00:51:05;;;;;;;1.40;0.30;;;;;;;;;;496696;28;934;-77
2024/01/24 00:51:20;;;;;;;1.27;0.30;;;;;;;;;;496049;28;1336;-77
2024/01/24 00:51:37;;;;;;;1.10;0.30;;;;;;;;;;497743;28;894;-77
2024/01/24 00:51:52;;;;;;;0.68;0.20;;;;;;;;;;495419;28;1375;-77
2024/01/24 00:52:08;;;;;;;0.40;0.20;;;;;;;;;;495357;28;1322;-77
2024/01/24 00:52:23;;;;;;;0.60;0.20;;;;;;;;;;496577;28;1160;-77
2024/01/24 00:52:39;;;;;;;0.52;0.20;;;;;;;;;;496458;28;1204;-76
2024/01/24 00:52:55;;;;;;;0.30;0.20;;;;;;;;;;495860;28;1044;-77
2024/01/24 00:53:15;;;;;;;0.40;0.17;;;;;;;;;;495260;28;1087;-77
2024/01/24 00:53:34;;;;;;;0.88;0.20;;;;;;;;;;497371;28;1048;-77
2024/01/24 00:53:53;;;;;;;0.70;0.20;;;;;;;;;;497592;28;1199;-77
2024/01/24 00:54:09;;;;;;;0.50;0.15;;;;;;;;;;496996;28;1348;-77
2024/01/24 00:54:24;;;;;;;0.50;0.10;;;;;;;;;;495166;28;1058;-77
2024/01/24 00:54:40;;;;;;;0.53;0.10;;;;;;;;;;496709;28;1076;-77
2024/01/24 00:54:55;;;;;;;0.90;0.22;;;;;;;;;;497111;28;1100;-77
2024/01/24 00:55:11;;;;;;;0.87;0.30;;;;;;;;;;495196;28;1203;-77
2024/01/24 00:55:28;;;;;;;0.95;0.20;;;;;;;;;;496007;28;1199;-77
2024/01/24 00:55:43;;;;;;;0.90;0.20;;;;;;;;;;496806;28;1152;-77
2024/01/24 00:55:59;;;;;;;0.87;0.10;;;;;;;;;;498800;28;874;-77
2024/01/24 00:56:14;;;;;;;0.65;0.20;;;;;;;;;;497713;28;1179;-77
2024/01/24 00:56:30;;;;;;;0.30;0.20;;;;;;;;;;495920;28;1202;-77
2024/01/24 00:56:46;;;;;;;0.38;0.10;;;;;;;;;;496217;28;932;-77
2024/01/24 00:57:01;;;;;;;1.00;0.20;;;;;;;;;;496223;28;1101;-77
2024/01/24 00:57:16;;;;;;;0.70;0.20;;;;;;;;;;494792;28;1308;-77
2024/01/24 00:57:32;;;;;;;0.30;0.10;;;;;;;;;;495587;28;1220;-77
2024/01/24 00:57:47;;;;;;;0.45;0.10;;;;;;;;;;496274;28;1551;-77
2024/01/24 00:58:03;;;;;;;0.90;0.20;;;;;;;;;;496673;28;1185;-77
2024/01/24 00:58:19;;;;;;;0.75;0.20;;;;;;;;;;498089;28;1228;-77
2024/01/24 00:58:34;;;;;;;0.30;0.10;;;;;;;;;;498623;28;1049;-77
2024/01/24 00:58:50;;;;;;;0.40;0.10;;;;;;;;;;496555;28;1355;-77
2024/01/24 00:59:05;;;;;;;0.40;0.10;;;;;;;;;;496577;28;1331;-77
2024/01/24 00:59:21;;;;;;;0.33;0.10;;;;;;;;;;496818;28;1580;-77
2024/01/24 00:59:36;;;;;;;0.10;0.10;;;;;;;;;;497009;28;1366;-77
2024/01/24 00:59:52;;;;;;;0.37;0.10;;;;;;;;;;495206;28;1360;-77
2024/01/24 01:00:08;;;;;;;0.60;0.17;;;;;;;;;;498496;28;1169;-78
2024/01/24 01:00:24;;;;;;;0.60;0.10;;;;;;;;;;497896;28;980;-78
2024/01/24 01:00:40;;;;;;;0.47;0.10;;;;;;;;;;499893;28;1054;-77
2024/01/24 01:00:55;;;;;;;0.32;0.20;;;;;;;;;;499991;28;1548;-77
2024/01/24 01:01:11;;;;;;;0.53;0.20;;;;;;;;;;499524;28;927;-77
2024/01/24 01:01:27;;;;;;;0.45;0.20;;;;;;;;;;501256;28;1076;-77
2024/01/24 01:01:42;;;;;;;0.43;0.20;;;;;;;;;;497802;28;1305;-77
2024/01/24 01:01:58;;;;;;;0.47;0.20;;;;;;;;;;497759;28;906;-78
2024/01/24 01:02:13;;;;;;;0.50;0.17;;;;;;;;;;496657;28;1231;-77
2024/01/24 01:02:29;;;;;;;0.40;0.10;;;;;;;;;;495161;28;2686;-78
2024/01/24 01:02:44;;;;;;;0.80;0.10;;;;;;;;;;495724;28;922;-77
2024/01/24 01:03:00;;;;;;;0.90;0.10;;;;;;;;;;497643;28;930;-77
2024/01/24 01:03:15;;;;;;;0.38;0.10;;;;;;;;;;498202;28;957;-77
2024/01/24 01:03:31;;;;;;;0.40;0.15;;;;;;;;;;497822;28;1374;-77
2024/01/24 01:03:47;;;;;;;0.50;0.10;;;;;;;;;;498141;28;1190;-77
2024/01/24 01:04:03;;;;;;;0.40;0.10;;;;;;;;;;499867;28;1226;-77
2024/01/24 01:04:19;;;;;;;0.70;0.20;;;;;;;;;;499790;28;1052;-77
2024/01/24 01:04:34;;;;;;;0.83;0.20;;;;;;;;;;498742;28;897;-77
2024/01/24 01:04:50;;;;;;;0.40;0.10;;;;;;;;;;499277;28;1244;-77
2024/01/24 01:05:06;;;;;;;0.23;0.10;;;;;;;;;;499394;28;1309;-77
2024/01/24 01:05:21;;;;;;;0.30;0.17;;;;;;;;;;498987;28;954;-77
2024/01/24 01:05:37;;;;;;;0.60;0.10;;;;;;;;;;499270;28;1081;-77
2024/01/24 01:05:53;;;;;;;0.50;0.10;;;;;;;;;;498323;28;1600;-77
2024/01/24 01:06:08;;;;;;;0.80;0.10;;;;;;;;;;498680;28;976;-76
2024/01/24 01:06:26;;;;;;;0.60;0.10;;;;;;;;;;496616;28;1509;-77
2024/01/24 01:06:41;;;;;;;0.60;0.10;;;;;;;;;;497231;28;1214;-76
2024/01/24 01:06:57;;;;;;;0.60;0.20;;;;;;;;;;495382;28;1113;-77
2024/01/24 01:07:12;;;;;;;0.40;0.20;;;;;;;;;;498481;28;922;-77
2024/01/24 01:07:28;;;;;;;0.30;0.20;;;;;;;;;;497995;28;1446;-78
2024/01/24 01:07:43;;;;;;;0.20;0.10;;;;;;;;;;498142;28;906;-78
2024/01/24 01:07:58;;;;;;;0.30;0.10;;;;;;;;;;498121;28;1176;-77
2024/01/24 01:08:14;;;;;;;0.30;0.10;;;;;;;;;;497341;28;994;-77
2024/01/24 01:08:29;;;;;;;0.10;0.00;;;;;;;;;;500929;28;1232;-77
2024/01/24 01:08:45;;;;;;;0.47;0.10;;;;;;;;;;501758;28;1327;-77
2024/01/24 01:09:00;;;;;;;0.90;0.10;;;;;;;;;;500986;28;949;-77
2024/01/24 01:09:16;;;;;;;0.73;0.20;;;;;;;;;;501166;28;1116;-77
2024/01/24 01:09:32;;;;;;;0.60;0.20;;;;;;;;;;500818;28;1401;-77
2024/01/24 01:09:47;;;;;;;0.47;0.10;;;;;;;;;;501110;28;981;-77
2024/01/24 01:10:03;;;;;;;0.50;0.20;;;;;;;;;;499761;28;1289;-78
2024/01/24 01:10:19;;;;;;;0.53;0.20;;;;;;;;;;498582;28;957;-77
2024/01/24 01:10:34;;;;;;;1.23;0.20;;;;;;;;;;497386;28;1176;-77
2024/01/24 01:10:49;;;;;;;1.40;0.20;;;;;;;;;;497925;28;1326;-77
2024/01/24 01:11:05;;;;;;;0.77;0.20;;;;;;;;;;498029;28;1135;-77
2024/01/24 01:11:20;;;;;;;0.70;0.20;;;;;;;;;;499848;28;1021;-78
2024/01/24 01:11:36;;;;;;;0.63;0.10;;;;;;;;;;500622;28;1120;-77
2024/01/24 01:11:52;;;;;;;0.60;0.10;;;;;;;;;;499223;28;916;-77
2024/01/24 01:12:07;;;;;;;0.45;0.10;;;;;;;;;;500640;28;1088;-77
2024/01/24 01:12:23;;;;;;;0.37;0.10;;;;;;;;;;501217;28;982;-79
2024/01/24 01:12:38;;;;;;;0.25;0.10;;;;;;;;;;503196;28;1053;-77
2024/01/24 01:12:54;;;;;;;0.35;0.15;;;;;;;;;;501079;28;925;-77
2024/01/24 01:13:09;;;;;;;0.20;0.10;;;;;;;;;;502285;28;1081;-77
2024/01/24 01:13:25;;;;;;;0.20;0.10;;;;;;;;;;503562;28;949;-77
2024/01/24 01:13:40;;;;;;;0.30;0.10;;;;;;;;;;502466;28;1499;-77
2024/01/24 01:13:56;;;;;;;0.25;0.10;;;;;;;;;;502521;28;1402;-77
2024/01/24 01:14:11;;;;;;;0.53;0.20;;;;;;;;;;497941;28;1071;-77
2024/01/24 01:14:27;;;;;;;0.80;0.20;;;;;;;;;;497370;28;1128;-77
2024/01/24 01:14:42;;;;;;;0.60;0.17;;;;;;;;;;497683;28;1044;-77
2024/01/24 01:14:58;;;;;;;0.30;0.10;;;;;;;;;;496830;28;1276;-77
2024/01/24 01:15:13;;;;;;;0.63;0.10;;;;;;;;;;495534;28;1227;-77
2024/01/24 01:15:29;;;;;;;0.77;0.13;;;;;;;;;;493497;28;1236;-77
2024/01/24 01:15:44;;;;;;;0.43;0.10;;;;;;;;;;493988;28;1163;-77
2024/01/24 01:16:00;;;;;;;0.25;0.10;;;;;;;;;;493658;28;1082;-77
2024/01/24 01:16:16;;;;;;;0.43;0.20;;;;;;;;;;494237;28;1135;-77
2024/01/24 01:16:31;;;;;;;0.50;0.20;;;;;;;;;;494651;28;1086;-78
2024/01/24 01:16:47;;;;;;;0.40;0.10;;;;;;;;;;495411;28;973;-77
2024/01/24 01:17:02;;;;;;;0.50;0.10;;;;;;;;;;495257;28;1284;-78
2024/01/24 01:17:18;;;;;;;0.60;0.10;;;;;;;;;;494201;28;1132;-77
2024/01/24 01:17:33;;;;;;;0.30;0.10;;;;;;;;;;495219;28;933;-77
2024/01/24 01:17:48;;;;;;;0.20;0.10;;;;;;;;;;493354;28;1196;-78
2024/01/24 01:18:04;;;;;;;0.10;0.10;;;;;;;;;;495949;28;918;-78
2024/01/24 01:18:20;;;;;;;0.40;0.10;;;;;;;;;;494142;28;1217;-78
2024/01/24 01:18:35;;;;;;;0.80;0.20;;;;;;;;;;493831;28;894;-77
2024/01/24 01:18:50;;;;;;;0.63;0.20;;;;;;;;;;495939;28;1429;-78
2024/01/24 01:19:06;;;;;;;0.50;0.13;;;;;;;;;;497035;28;1085;-77
2024/01/24 01:19:21;;;;;;;0.60;0.20;;;;;;;;;;499043;28;1421;-77
2024/01/24 01:19:37;;;;;;;0.60;0.10;;;;;;;;;;499570;28;1501;-77
2024/01/24 01:19:52;;;;;;;0.50;0.10;;;;;;;;;;500576;28;1182;-78
2024/01/24 01:20:11;;;;;;;0.28;0.10;;;;;;;;;;499570;28;1154;-77
2024/01/24 01:20:27;;;;;;;0.57;0.10;;;;;;;;;;497297;28;1092;-77
2024/01/24 01:20:42;;;;;;;0.50;0.10;;;;;;;;;;495659;28;1426;-78
2024/01/24 01:20:58;;;;;;;0.10;0.10;;;;;;;;;;494965;28;1140;-77
2024/01/24 01:21:13;;;;;;;0.43;0.10;;;;;;;;;;494250;28;1427;-77
2024/01/24 01:21:29;;;;;;;0.50;0.10;;;;;;;;;;493304;28;1252;-77
2024/01/24 01:21:45;;;;;;;0.77;0.20;;;;;;;;;;493588;28;1222;-77
2024/01/24 01:22:00;;;;;;;0.90;0.20;;;;;;;;;;495935;28;977;-78
2024/01/24 01:22:16;;;;;;;0.55;0.15;;;;;;;;;;495439;28;1339;-78
2024/01/24 01:22:32;;;;;;;0.30;0.17;;;;;;;;;;496485;28;2006;-77
2024/01/24 01:22:48;;;;;;;0.10;0.10;;;;;;;;;;496473;28;963;-77
2024/01/24 01:23:04;;;;;;;0.38;0.10;;;;;;;;;;496469;28;1473;-78
2024/01/24 01:23:19;;;;;;;0.50;0.17;;;;;;;;;;496759;28;1269;-77
2024/01/24 01:23:35;;;;;;;0.20;0.10;;;;;;;;;;496560;28;1429;-77
2024/01/24 01:23:50;;;;;;;0.20;0.10;;;;;;;;;;498245;28;965;-77
2024/01/24 01:24:08;;;;;;;0.13;0.10;;;;;;;;;;498152;28;1123;-76
2024/01/24 01:24:23;;;;;;;0.30;0.10;;;;;;;;;;495979;28;1296;-77
2024/01/24 01:24:39;;;;;;;0.45;0.10;;;;;;;;;;497371;28;1211;-77
2024/01/24 01:24:54;;;;;;;0.50;0.10;;;;;;;;;;496975;28;1076;-77
2024/01/24 01:25:10;;;;;;;0.50;0.10;;;;;;;;;;494789;28;1011;-77
2024/01/24 01:25:25;;;;;;;0.43;0.10;;;;;;;;;;495918;28;1020;-77
2024/01/24 01:25:40;;;;;;;0.60;0.10;;;;;;;;;;496814;28;1183;-77
2024/01/24 01:25:56;;;;;;;0.70;0.20;;;;;;;;;;496807;28;1129;-77
2024/01/24 01:26:13;;;;;;;0.73;0.23;;;;;;;;;;496369;28;979;-77
2024/01/24 01:26:32;;;;;;;0.60;0.20;;;;;;;;;;495957;28;886;-77
2024/01/24 01:26:48;;;;;;;0.28;0.10;;;;;;;;;;495241;28;1084;-77
2024/01/24 01:27:04;;;;;;;0.70;0.10;;;;;;;;;;497522;28;905;-77
2024/01/24 01:27:19;;;;;;;0.55;0.17;;;;;;;;;;498008;28;981;-77
2024/01/24 01:27:35;;;;;;;0.20;0.13;;;;;;;;;;498557;28;881;-78
2024/01/24 01:27:50;;;;;;;0.67;0.20;;;;;;;;;;498491;28;1089;-79
2024/01/24 01:28:06;;;;;;;0.88;0.20;;;;;;;;;;499662;28;878;-77
2024/01/24 01:28:21;;;;;;;0.65;0.15;;;;;;;;;;498331;28;1220;-77
2024/01/24 01:28:37;;;;;;;0.67;0.10;;;;;;;;;;497613;28;1111;-77
2024/01/24 01:28:52;;;;;;;0.40;0.10;;;;;;;;;;498637;28;1112;-77
2024/01/24 01:29:08;;;;;;;0.37;0.10;;;;;;;;;;499155;28;1179;-78
2024/01/24 01:29:23;;;;;;;0.50;0.10;;;;;;;;;;498769;28;952;-77
2024/01/24 01:29:39;;;;;;;0.57;0.10;;;;;;;;;;499662;28;987;-77
2024/01/24 01:29:55;;;;;;;0.50;0.10;;;;;;;;;;496910;28;1256;-77
2024/01/24 01:30:10;;;;;;;0.50;0.20;;;;;;;;;;496335;28;1225;-78
2024/01/24 01:30:26;;;;;;;0.47;0.20;;;;;;;;;;494173;28;1200;-77
2024/01/24 01:30:41;;;;;;;0.35;0.10;;;;;;;;;;494273;28;1115;-77
2024/01/24 01:30:57;;;;;;;0.90;0.20;;;;;;;;;;493810;28;1389;-77
2024/01/24 01:31:12;;;;;;;0.93;0.20;;;;;;;;;;495271;28;1299;-77
2024/01/24 01:31:30;;;;;;;0.40;0.20;;;;;;;;;;494429;28;1192;-77
2024/01/24 01:31:46;;;;;;;0.25;0.10;;;;;;;;;;494663;28;1226;-77
2024/01/24 01:32:02;;;;;;;0.25;0.10;;;;;;;;;;495231;28;1226;-78
2024/01/24 01:32:17;;;;;;;0.40;0.10;;;;;;;;;;494206;28;1230;-77
2024/01/24 01:32:33;;;;;;;0.30;0.10;;;;;;;;;;494615;28;893;-77
2024/01/24 01:32:49;;;;;;;0.35;0.10;;;;;;;;;;494821;28;1183;-77
2024/01/24 01:33:05;;;;;;;0.38;0.10;;;;;;;;;;497317;28;1384;-77
2024/01/24 01:33:20;;;;;;;0.60;0.10;;;;;;;;;;496933;28;933;-77
2024/01/24 01:33:36;;;;;;;1.20;0.10;;;;;;;;;;499528;28;1027;-77
2024/01/24 01:33:51;;;;;;;0.67;0.10;;;;;;;;;;497431;28;1114;-77
2024/01/24 01:34:07;;;;;;;0.22;0.10;;;;;;;;;;497777;28;902;-77
2024/01/24 01:34:22;;;;;;;0.47;0.10;;;;;;;;;;496378;28;1135;-77
2024/01/24 01:34:38;;;;;;;0.55;0.10;;;;;;;;;;497146;28;1096;-77
2024/01/24 01:34:54;;;;;;;0.40;0.10;;;;;;;;;;499147;28;1076;-77
2024/01/24 01:35:10;;;;;;;0.80;0.10;;;;;;;;;;498913;28;975;-77
2024/01/24 01:35:26;;;;;;;0.75;0.10;;;;;;;;;;497931;28;1239;-77
2024/01/24 01:35:41;;;;;;;0.40;0.10;;;;;;;;;;499129;28;893;-77
2024/01/24 01:35:57;;;;;;;0.30;0.10;;;;;;;;;;496132;28;1218;-77
2024/01/24 01:36:12;;;;;;;0.30;0.10;;;;;;;;;;496091;28;998;-77
2024/01/24 01:36:28;;;;;;;0.80;0.10;;;;;;;;;;495975;28;1273;-77
2024/01/24 01:36:43;;;;;;;0.75;0.10;;;;;;;;;;496608;28;1116;-77
2024/01/24 01:36:59;;;;;;;0.40;0.10;;;;;;;;;;497407;28;925;-77
2024/01/24 01:37:14;;;;;;;0.30;0.10;;;;;;;;;;496643;28;1099;-77
2024/01/24 01:37:30;;;;;;;0.37;0.13;;;;;;;;;;496622;28;922;-78